sensor_id;sensor_type;location;lat;lon;timestamp;pressure;altitude;pressure_sealevel;temperature;humidity
70009;BME280;59542;37.950;-122.338;2022-09-03T00:00:11;100906.56;;;24.49;45.55
70009;BME280;59542;37.950;-122.338;2022-09-03T00:02:41;100898.13;;;24.45;46.38
70009;BME280;59542;37.950;-122.338;2022-09-03T00:05:37;100903.94;;;24.01;45.27
70009;BME280;59542;37.950;-122.338;2022-09-03T00:08:38;100900.44;;;23.77;46.59
70009;BME280;59542;37.950;-122.338;2022-09-03T00:11:18;100916.16;;;23.66;46.96
70009;BME280;59542;37.950;-122.338;2022-09-03T00:13:54;100916.75;;;23.58;46.77
70009;BME280;59542;37.950;-122.338;2022-09-03T00:16:25;100910.13;;;23.40;48.58
70009;BME280;59542;37.950;-122.338;2022-09-03T00:19:00;100902.09;;;23.25;48.38
70009;BME280;59542;37.950;-122.338;2022-09-03T00:21:40;100905.91;;;23.24;48.24
70009;BME280;59542;37.950;-122.338;2022-09-03T00:24:12;100904.19;;;23.04;48.22
70009;BME280;59542;37.950;-122.338;2022-09-03T00:26:43;100900.84;;;22.83;48.88
70009;BME280;59542;37.950;-122.338;2022-09-03T00:29:24;100920.81;;;22.73;50.48
70009;BME280;59542;37.950;-122.338;2022-09-03T00:31:57;100906.47;;;22.57;50.57
70009;BME280;59542;37.950;-122.338;2022-09-03T00:34:37;100907.38;;;22.48;51.11
70009;BME280;59542;37.950;-122.338;2022-09-03T00:37:08;100915.44;;;22.24;51.87
70009;BME280;59542;37.950;-122.338;2022-09-03T00:39:36;100908.41;;;22.12;51.90
70009;BME280;59542;37.950;-122.338;2022-09-03T01:01:35;100942.75;;;20.93;55.72
70009;BME280;59542;37.950;-122.338;2022-09-03T01:07:31;100936.75;;;20.75;57.25
70009;BME280;59542;37.950;-122.338;2022-09-03T01:10:35;100937.03;;;20.69;56.38
70009;BME280;59542;37.950;-122.338;2022-09-03T01:13:29;100945.13;;;20.38;57.83
70009;BME280;59542;37.950;-122.338;2022-09-03T01:19:10;100938.31;;;20.41;57.58
70009;BME280;59542;37.950;-122.338;2022-09-03T01:27:43;100939.91;;;20.26;58.47
70009;BME280;59542;37.950;-122.338;2022-09-03T01:30:14;100945.81;;;20.03;59.22
70009;BME280;59542;37.950;-122.338;2022-09-03T01:33:02;100951.88;;;20.25;58.59
70009;BME280;59542;37.950;-122.338;2022-09-03T01:35:49;100946.84;;;19.87;59.56
70009;BME280;59542;37.950;-122.338;2022-09-03T01:44:19;100942.66;;;19.64;60.91
70009;BME280;59542;37.950;-122.338;2022-09-03T01:46:57;100936.75;;;19.30;62.00
70009;BME280;59542;37.950;-122.338;2022-09-03T01:49:37;100940.47;;;19.18;62.16
70009;BME280;59542;37.950;-122.338;2022-09-03T02:00:22;100945.56;;;18.78;63.81
70009;BME280;59542;37.950;-122.338;2022-09-03T02:02:50;100932.44;;;18.42;65.25
70009;BME280;59542;37.950;-122.338;2022-09-03T02:05:22;100936.03;;;18.48;65.34
70009;BME280;59542;37.950;-122.338;2022-09-03T02:07:59;100937.41;;;18.24;66.00
70009;BME280;59542;37.950;-122.338;2022-09-03T02:10:47;100940.91;;;18.46;65.46
70009;BME280;59542;37.950;-122.338;2022-09-03T02:13:17;100939.88;;;18.52;65.44
70009;BME280;59542;37.950;-122.338;2022-09-03T02:15:47;100948.63;;;18.32;65.84
70009;BME280;59542;37.950;-122.338;2022-09-03T02:18:30;100944.84;;;18.33;65.98
70009;BME280;59542;37.950;-122.338;2022-09-03T02:20:59;100936.22;;;18.14;66.80
70009;BME280;59542;37.950;-122.338;2022-09-03T02:23:27;100950.03;;;17.91;67.27
70009;BME280;59542;37.950;-122.338;2022-09-03T02:25:59;100941.09;;;17.90;67.86
70009;BME280;59542;37.950;-122.338;2022-09-03T02:28:31;100940.66;;;17.77;68.30
70009;BME280;59542;37.950;-122.338;2022-09-03T02:30:57;100926.19;;;17.88;67.68
70009;BME280;59542;37.950;-122.338;2022-09-03T02:33:24;100937.38;;;17.75;68.60
70009;BME280;59542;37.950;-122.338;2022-09-03T02:35:51;100942.28;;;17.78;67.98
70009;BME280;59542;37.950;-122.338;2022-09-03T02:38:20;100945.75;;;17.73;68.08
70009;BME280;59542;37.950;-122.338;2022-09-03T02:40:50;100932.84;;;17.80;68.13
70009;BME280;59542;37.950;-122.338;2022-09-03T02:43:32;100950.50;;;17.83;68.11
70009;BME280;59542;37.950;-122.338;2022-09-03T02:46:02;100938.59;;;17.84;67.79
70009;BME280;59542;37.950;-122.338;2022-09-03T02:48:29;100942.63;;;17.64;68.37
70009;BME280;59542;37.950;-122.338;2022-09-03T02:50:56;100942.16;;;17.51;68.92
70009;BME280;59542;37.950;-122.338;2022-09-03T02:53:22;100952.75;;;17.52;69.03
70009;BME280;59542;37.950;-122.338;2022-09-03T02:55:48;100940.34;;;17.56;69.07
70009;BME280;59542;37.950;-122.338;2022-09-03T02:58:15;100934.31;;;17.49;69.01
70009;BME280;59542;37.950;-122.338;2022-09-03T03:00:41;100931.53;;;17.44;69.32
70009;BME280;59542;37.950;-122.338;2022-09-03T03:03:07;100950.44;;;17.61;68.50
70009;BME280;59542;37.950;-122.338;2022-09-03T03:08:09;100944.69;;;17.57;69.31
70009;BME280;59542;37.950;-122.338;2022-09-03T03:10:36;100953.69;;;17.63;69.34
70009;BME280;59542;37.950;-122.338;2022-09-03T03:13:03;100941.09;;;17.52;69.50
70009;BME280;59542;37.950;-122.338;2022-09-03T03:15:29;100947.97;;;17.59;68.98
70009;BME280;59542;37.950;-122.338;2022-09-03T03:17:56;100942.06;;;17.62;68.98
70009;BME280;59542;37.950;-122.338;2022-09-03T03:20:22;100947.97;;;17.59;69.16
70009;BME280;59542;37.950;-122.338;2022-09-03T03:22:48;100957.56;;;17.67;68.79
70009;BME280;59542;37.950;-122.338;2022-09-03T03:25:15;100956.66;;;17.61;69.83
70009;BME280;59542;37.950;-122.338;2022-09-03T03:27:41;100949.72;;;17.71;69.34
70009;BME280;59542;37.950;-122.338;2022-09-03T03:30:09;100952.38;;;17.65;69.93
70009;BME280;59542;37.950;-122.338;2022-09-03T03:32:36;100959.50;;;17.72;69.68
70009;BME280;59542;37.950;-122.338;2022-09-03T03:35:04;100970.28;;;17.66;70.10
70009;BME280;59542;37.950;-122.338;2022-09-03T03:37:31;100969.53;;;17.54;71.21
70009;BME280;59542;37.950;-122.338;2022-09-03T03:39:58;100964.34;;;17.69;70.68
70009;BME280;59542;37.950;-122.338;2022-09-03T03:42:24;100980.28;;;17.83;70.10
70009;BME280;59542;37.950;-122.338;2022-09-03T03:44:50;100975.53;;;17.95;70.25
70009;BME280;59542;37.950;-122.338;2022-09-03T03:47:16;100974.84;;;17.83;70.35
70009;BME280;59542;37.950;-122.338;2022-09-03T03:49:44;100972.22;;;17.88;69.37
70009;BME280;59542;37.950;-122.338;2022-09-03T03:52:10;100994.63;;;17.83;69.38
70009;BME280;59542;37.950;-122.338;2022-09-03T03:54:36;100989.34;;;17.93;69.11
70009;BME280;59542;37.950;-122.338;2022-09-03T03:57:02;100997.06;;;17.85;68.81
70009;BME280;59542;37.950;-122.338;2022-09-03T03:59:29;101006.63;;;17.92;68.29
70009;BME280;59542;37.950;-122.338;2022-09-03T04:01:55;100998.97;;;18.06;67.85
70009;BME280;59542;37.950;-122.338;2022-09-03T04:04:21;101009.28;;;18.09;67.34
70009;BME280;59542;37.950;-122.338;2022-09-03T04:06:47;101011.91;;;17.99;68.19
70009;BME280;59542;37.950;-122.338;2022-09-03T04:09:13;101008.16;;;17.83;68.72
70009;BME280;59542;37.950;-122.338;2022-09-03T04:11:40;101010.72;;;17.73;70.26
70009;BME280;59542;37.950;-122.338;2022-09-03T04:14:06;101017.66;;;17.86;70.20
70009;BME280;59542;37.950;-122.338;2022-09-03T04:16:32;101032.00;;;17.69;69.90
70009;BME280;59542;37.950;-122.338;2022-09-03T04:18:58;101035.09;;;17.73;70.08
70009;BME280;59542;37.950;-122.338;2022-09-03T04:21:26;101044.47;;;17.87;69.04
70009;BME280;59542;37.950;-122.338;2022-09-03T04:23:53;101053.31;;;17.78;69.50
70009;BME280;59542;37.950;-122.338;2022-09-03T04:26:23;101053.03;;;17.79;69.26
70009;BME280;59542;37.950;-122.338;2022-09-03T04:28:50;101058.19;;;17.81;69.13
70009;BME280;59542;37.950;-122.338;2022-09-03T04:31:18;101068.28;;;17.85;68.86
70009;BME280;59542;37.950;-122.338;2022-09-03T04:33:45;101064.34;;;17.76;69.63
70009;BME280;59542;37.950;-122.338;2022-09-03T04:36:12;101061.41;;;17.78;69.62
70009;BME280;59542;37.950;-122.338;2022-09-03T04:38:40;101067.66;;;17.78;68.82
70009;BME280;59542;37.950;-122.338;2022-09-03T04:41:08;101070.44;;;17.66;69.11
70009;BME280;59542;37.950;-122.338;2022-09-03T04:43:36;101065.16;;;17.43;69.33
70009;BME280;59542;37.950;-122.338;2022-09-03T04:46:04;101075.25;;;17.31;70.34
70009;BME280;59542;37.950;-122.338;2022-09-03T04:48:33;101060.59;;;17.44;70.02
70009;BME280;59542;37.950;-122.338;2022-09-03T04:51:11;101077.31;;;17.40;70.00
70009;BME280;59542;37.950;-122.338;2022-09-03T04:53:44;101072.38;;;17.21;70.67
70009;BME280;59542;37.950;-122.338;2022-09-03T04:56:23;101068.63;;;17.22;71.01
70009;BME280;59542;37.950;-122.338;2022-09-03T04:58:56;101065.31;;;17.20;71.24
70009;BME280;59542;37.950;-122.338;2022-09-03T05:01:25;101082.25;;;17.27;70.43
70009;BME280;59542;37.950;-122.338;2022-09-03T05:03:52;101089.09;;;17.18;70.80
70009;BME280;59542;37.950;-122.338;2022-09-03T05:06:19;101082.28;;;17.15;71.14
70009;BME280;59542;37.950;-122.338;2022-09-03T05:08:49;101103.22;;;17.36;70.36
70009;BME280;59542;37.950;-122.338;2022-09-03T05:11:16;101103.88;;;17.27;70.67
70009;BME280;59542;37.950;-122.338;2022-09-03T05:13:43;101115.81;;;17.14;70.76
70009;BME280;59542;37.950;-122.338;2022-09-03T05:16:11;101115.66;;;17.21;70.57
70009;BME280;59542;37.950;-122.338;2022-09-03T05:18:38;101097.41;;;17.28;70.37
70009;BME280;59542;37.950;-122.338;2022-09-03T05:21:06;101085.66;;;17.22;70.88
70009;BME280;59542;37.950;-122.338;2022-09-03T05:23:38;101097.84;;;17.08;71.67
70009;BME280;59542;37.950;-122.338;2022-09-03T05:26:07;101092.19;;;17.09;71.56
70009;BME280;59542;37.950;-122.338;2022-09-03T05:28:38;101102.72;;;17.23;71.32
70009;BME280;59542;37.950;-122.338;2022-09-03T05:31:07;101103.63;;;17.28;71.38
70009;BME280;59542;37.950;-122.338;2022-09-03T05:33:39;101095.00;;;17.31;71.46
70009;BME280;59542;37.950;-122.338;2022-09-03T05:36:08;101099.19;;;17.22;71.84
70009;BME280;59542;37.950;-122.338;2022-09-03T05:38:35;101103.09;;;17.14;72.00
70009;BME280;59542;37.950;-122.338;2022-09-03T05:41:04;101096.06;;;17.13;71.96
70009;BME280;59542;37.950;-122.338;2022-09-03T05:43:31;101090.06;;;17.11;71.75
70009;BME280;59542;37.950;-122.338;2022-09-03T05:46:05;101092.38;;;17.20;72.03
70009;BME280;59542;37.950;-122.338;2022-09-03T05:48:33;101102.88;;;17.16;71.83
70009;BME280;59542;37.950;-122.338;2022-09-03T05:51:10;101102.53;;;17.12;72.45
70009;BME280;59542;37.950;-122.338;2022-09-03T05:53:38;101106.47;;;17.05;72.56
70009;BME280;59542;37.950;-122.338;2022-09-03T05:56:10;101099.94;;;16.89;73.07
70009;BME280;59542;37.950;-122.338;2022-09-03T05:58:40;101090.56;;;16.80;73.59
70009;BME280;59542;37.950;-122.338;2022-09-03T06:01:20;101096.38;;;17.00;72.96
70009;BME280;59542;37.950;-122.338;2022-09-03T06:03:55;101095.19;;;16.96;72.78
70009;BME280;59542;37.950;-122.338;2022-09-03T06:06:22;101095.25;;;16.84;72.80
70009;BME280;59542;37.950;-122.338;2022-09-03T06:09:09;101108.16;;;16.94;72.23
70009;BME280;59542;37.950;-122.338;2022-09-03T06:11:36;101101.53;;;17.02;71.68
70009;BME280;59542;37.950;-122.338;2022-09-03T06:14:05;101086.63;;;16.87;72.06
70009;BME280;59542;37.950;-122.338;2022-09-03T06:16:35;101091.88;;;17.06;71.75
70009;BME280;59542;37.950;-122.338;2022-09-03T06:19:03;101100.16;;;16.87;71.71
70009;BME280;59542;37.950;-122.338;2022-09-03T06:21:31;101091.09;;;16.94;71.24
70009;BME280;59542;37.950;-122.338;2022-09-03T06:23:58;101090.34;;;16.98;71.16
70009;BME280;59542;37.950;-122.338;2022-09-03T06:26:24;101088.09;;;17.07;70.83
70009;BME280;59542;37.950;-122.338;2022-09-03T06:28:52;101095.75;;;16.98;70.74
70009;BME280;59542;37.950;-122.338;2022-09-03T06:31:20;101093.50;;;17.07;70.79
70009;BME280;59542;37.950;-122.338;2022-09-03T06:33:47;101109.38;;;17.03;70.62
70009;BME280;59542;37.950;-122.338;2022-09-03T06:36:17;101108.25;;;16.99;70.57
70009;BME280;59542;37.950;-122.338;2022-09-03T06:38:44;101104.72;;;17.15;70.25
70009;BME280;59542;37.950;-122.338;2022-09-03T06:41:16;101090.81;;;17.07;70.23
70009;BME280;59542;37.950;-122.338;2022-09-03T06:44:06;101108.28;;;17.16;70.25
70009;BME280;59542;37.950;-122.338;2022-09-03T06:46:37;101114.56;;;17.05;70.27
70009;BME280;59542;37.950;-122.338;2022-09-03T06:49:04;101108.31;;;17.04;70.15
70009;BME280;59542;37.950;-122.338;2022-09-03T06:51:31;101120.69;;;17.00;70.31
70009;BME280;59542;37.950;-122.338;2022-09-03T06:54:06;101120.19;;;17.03;70.38
70009;BME280;59542;37.950;-122.338;2022-09-03T06:56:34;101133.91;;;16.85;70.91
70009;BME280;59542;37.950;-122.338;2022-09-03T06:59:13;101132.59;;;16.87;70.80
70009;BME280;59542;37.950;-122.338;2022-09-03T07:01:41;101137.69;;;16.84;70.93
70009;BME280;59542;37.950;-122.338;2022-09-03T07:04:08;101131.22;;;16.85;70.83
70009;BME280;59542;37.950;-122.338;2022-09-03T07:06:39;101143.78;;;16.91;70.75
70009;BME280;59542;37.950;-122.338;2022-09-03T07:09:07;101142.28;;;16.83;70.94
70009;BME280;59542;37.950;-122.338;2022-09-03T07:11:35;101129.56;;;16.84;70.84
70009;BME280;59542;37.950;-122.338;2022-09-03T07:14:03;101131.00;;;16.75;70.79
70009;BME280;59542;37.950;-122.338;2022-09-03T07:16:36;101137.19;;;16.87;70.28
70009;BME280;59542;37.950;-122.338;2022-09-03T07:19:04;101135.84;;;16.73;70.95
70009;BME280;59542;37.950;-122.338;2022-09-03T07:21:34;101143.94;;;16.61;71.40
70009;BME280;59542;37.950;-122.338;2022-09-03T07:24:06;101141.34;;;16.66;71.55
70009;BME280;59542;37.950;-122.338;2022-09-03T07:26:39;101136.56;;;16.56;71.50
70009;BME280;59542;37.950;-122.338;2022-09-03T07:29:06;101152.75;;;16.68;71.01
70009;BME280;59542;37.950;-122.338;2022-09-03T07:31:34;101151.34;;;16.77;70.57
70009;BME280;59542;37.950;-122.338;2022-09-03T07:34:04;101146.75;;;16.78;70.86
70009;BME280;59542;37.950;-122.338;2022-09-03T07:36:36;101154.72;;;16.84;70.88
70009;BME280;59542;37.950;-122.338;2022-09-03T07:39:11;101159.09;;;16.74;71.19
70009;BME280;59542;37.950;-122.338;2022-09-03T07:41:38;101152.88;;;16.73;71.29
70009;BME280;59542;37.950;-122.338;2022-09-03T07:44:13;101165.44;;;16.68;71.67
70009;BME280;59542;37.950;-122.338;2022-09-03T07:46:41;101162.13;;;16.66;71.97
70009;BME280;59542;37.950;-122.338;2022-09-03T07:49:08;101159.69;;;16.64;72.00
70009;BME280;59542;37.950;-122.338;2022-09-03T07:51:37;101173.19;;;16.76;71.85
70009;BME280;59542;37.950;-122.338;2022-09-03T07:54:05;101170.72;;;16.62;72.58
70009;BME280;59542;37.950;-122.338;2022-09-03T07:56:33;101169.53;;;16.70;72.48
70009;BME280;59542;37.950;-122.338;2022-09-03T07:59:01;101159.22;;;16.67;72.92
70009;BME280;59542;37.950;-122.338;2022-09-03T08:01:28;101173.66;;;16.84;71.75
70009;BME280;59542;37.950;-122.338;2022-09-03T08:03:56;101173.53;;;16.68;72.39
70009;BME280;59542;37.950;-122.338;2022-09-03T08:06:24;101173.91;;;16.59;72.71
70009;BME280;59542;37.950;-122.338;2022-09-03T08:08:55;101169.53;;;16.70;72.63
70009;BME280;59542;37.950;-122.338;2022-09-03T08:11:25;101165.31;;;16.62;72.62
70009;BME280;59542;37.950;-122.338;2022-09-03T08:13:57;101159.78;;;16.81;72.09
70009;BME280;59542;37.950;-122.338;2022-09-03T08:16:29;101174.38;;;16.56;73.05
70009;BME280;59542;37.950;-122.338;2022-09-03T08:18:56;101172.13;;;16.65;72.89
70009;BME280;59542;37.950;-122.338;2022-09-03T08:21:23;101170.72;;;16.74;72.67
70009;BME280;59542;37.950;-122.338;2022-09-03T08:23:52;101168.84;;;16.75;72.49
70009;BME280;59542;37.950;-122.338;2022-09-03T08:26:21;101170.72;;;16.74;72.22
70009;BME280;59542;37.950;-122.338;2022-09-03T08:28:47;101174.94;;;16.70;72.65
70009;BME280;59542;37.950;-122.338;2022-09-03T08:31:19;101172.13;;;16.65;72.82
70009;BME280;59542;37.950;-122.338;2022-09-03T08:33:48;101165.19;;;16.81;72.53
70009;BME280;59542;37.950;-122.338;2022-09-03T08:36:18;101149.69;;;16.64;73.18
70009;BME280;59542;37.950;-122.338;2022-09-03T08:38:46;101147.59;;;16.67;72.72
70009;BME280;59542;37.950;-122.338;2022-09-03T08:52:41;101156.53;;;16.55;73.49
70009;BME280;59542;37.950;-122.338;2022-09-03T08:57:52;101165.81;;;16.48;73.11
70009;BME280;59542;37.950;-122.338;2022-09-03T09:00:19;101166.16;;;16.51;73.59
70009;BME280;59542;37.950;-122.338;2022-09-03T09:06:06;101165.13;;;16.41;73.55
70009;BME280;59542;37.950;-122.338;2022-09-03T09:11:59;101160.78;;;16.28;74.31
70009;BME280;59542;37.950;-122.338;2022-09-03T09:17:24;101161.25;;;16.25;74.62
70009;BME280;59542;37.950;-122.338;2022-09-03T09:22:39;101162.69;;;16.27;74.62
70009;BME280;59542;37.950;-122.338;2022-09-03T09:25:12;101162.88;;;16.26;74.37
70009;BME280;59542;37.950;-122.338;2022-09-03T09:28:09;101164.06;;;16.30;74.11
70009;BME280;59542;37.950;-122.338;2022-09-03T09:30:39;101175.56;;;16.37;73.67
70009;BME280;59542;37.950;-122.338;2022-09-03T09:33:05;101177.69;;;16.35;74.07
70009;BME280;59542;37.950;-122.338;2022-09-03T09:35:32;101177.56;;;16.30;73.93
70009;BME280;59542;37.950;-122.338;2022-09-03T09:37:58;101171.25;;;16.24;74.11
70009;BME280;59542;37.950;-122.338;2022-09-03T09:40:32;101180.41;;;16.23;74.33
70009;BME280;59542;37.950;-122.338;2022-09-03T09:43:05;101179.81;;;16.33;73.77
70009;BME280;59542;37.950;-122.338;2022-09-03T09:45:32;101179.34;;;16.24;74.22
70009;BME280;59542;37.950;-122.338;2022-09-03T09:48:00;101187.31;;;16.31;74.27
70009;BME280;59542;37.950;-122.338;2022-09-03T09:50:27;101185.78;;;16.35;74.43
70009;BME280;59542;37.950;-122.338;2022-09-03T09:53:06;101179.34;;;16.24;74.95
70009;BME280;59542;37.950;-122.338;2022-09-03T09:55:55;101175.38;;;16.27;75.09
70009;BME280;59542;37.950;-122.338;2022-09-03T09:58:25;101172.31;;;16.23;75.11
70009;BME280;59542;37.950;-122.338;2022-09-03T10:03:46;101176.88;;;16.34;74.68
70009;BME280;59542;37.950;-122.338;2022-09-03T10:06:15;101167.03;;;16.28;74.77
70009;BME280;59542;37.950;-122.338;2022-09-03T10:09:26;101166.16;;;16.51;73.99
70009;BME280;59542;37.950;-122.338;2022-09-03T10:12:45;101169.00;;;16.45;74.05
70009;BME280;59542;37.950;-122.338;2022-09-03T10:18:16;101174.88;;;16.42;74.68
70009;BME280;59542;37.950;-122.338;2022-09-03T10:23:27;101170.16;;;16.49;73.70
70009;BME280;59542;37.950;-122.338;2022-09-03T10:26:13;101182.97;;;16.42;73.99
70009;BME280;59542;37.950;-122.338;2022-09-03T10:28:42;101184.03;;;16.52;73.46
70009;BME280;59542;37.950;-122.338;2022-09-03T10:31:35;101182.03;;;16.36;73.83
70009;BME280;59542;37.950;-122.338;2022-09-03T10:34:05;101173.69;;;16.49;73.38
70009;BME280;59542;37.950;-122.338;2022-09-03T10:42:36;101176.16;;;16.51;72.69
70009;BME280;59542;37.950;-122.338;2022-09-03T10:50:18;101180.63;;;16.45;72.23
70009;BME280;59542;37.950;-122.338;2022-09-03T10:56:09;101182.28;;;16.34;71.80
70009;BME280;59542;37.950;-122.338;2022-09-03T10:59:06;101175.69;;;16.30;72.36
70009;BME280;59542;37.950;-122.338;2022-09-03T11:01:59;101173.81;;;16.31;72.94
70009;BME280;59542;37.950;-122.338;2022-09-03T11:04:37;101174.75;;;16.13;73.35
70009;BME280;59542;37.950;-122.338;2022-09-03T11:07:12;101186.50;;;16.19;73.01
70009;BME280;59542;37.950;-122.338;2022-09-03T11:10:28;101189.09;;;16.14;72.68
70009;BME280;59542;37.950;-122.338;2022-09-03T11:15:28;101180.28;;;16.06;72.96
70009;BME280;59542;37.950;-122.338;2022-09-03T11:20:30;101169.25;;;15.96;72.88
70009;BME280;59542;37.950;-122.338;2022-09-03T11:23:00;101176.53;;;16.07;72.42
70009;BME280;59542;37.950;-122.338;2022-09-03T11:25:38;101173.13;;;16.12;72.33
70009;BME280;59542;37.950;-122.338;2022-09-03T11:34:12;101177.59;;;16.18;71.80
70009;BME280;59542;37.950;-122.338;2022-09-03T11:36:39;101179.81;;;16.09;72.25
70009;BME280;59542;37.950;-122.338;2022-09-03T11:39:19;101179.34;;;16.13;72.03
70009;BME280;59542;37.950;-122.338;2022-09-03T11:42:11;101176.53;;;16.19;71.65
70009;BME280;59542;37.950;-122.338;2022-09-03T11:44:43;101172.63;;;16.15;71.70
70009;BME280;59542;37.950;-122.338;2022-09-03T11:47:21;101173.25;;;16.17;71.41
70009;BME280;59542;37.950;-122.338;2022-09-03T11:49:51;101184.75;;;16.36;70.97
70009;BME280;59542;37.950;-122.338;2022-09-03T11:52:29;101178.38;;;16.42;70.25
70009;BME280;59542;37.950;-122.338;2022-09-03T11:54:57;101178.88;;;16.39;70.70
70009;BME280;59542;37.950;-122.338;2022-09-03T11:57:29;101176.28;;;16.44;70.22
70009;BME280;59542;37.950;-122.338;2022-09-03T12:00:13;101175.38;;;16.27;71.16
70009;BME280;59542;37.950;-122.338;2022-09-03T12:02:55;101182.63;;;16.26;70.66
70009;BME280;59542;37.950;-122.338;2022-09-03T12:05:48;101183.09;;;16.12;71.47
70009;BME280;59542;37.950;-122.338;2022-09-03T12:11:48;101168.78;;;16.23;71.68
70009;BME280;59542;37.950;-122.338;2022-09-03T12:19:53;101167.47;;;16.14;72.29
70009;BME280;59542;37.950;-122.338;2022-09-03T12:22:22;101166.78;;;16.06;72.17
70009;BME280;59542;37.950;-122.338;2022-09-03T12:24:49;101156.09;;;15.88;72.92
70009;BME280;59542;37.950;-122.338;2022-09-03T12:27:26;101158.31;;;15.91;72.86
70009;BME280;59542;37.950;-122.338;2022-09-03T12:29:57;101160.56;;;15.94;72.66
70009;BME280;59542;37.950;-122.338;2022-09-03T12:32:33;101172.50;;;15.98;72.40
70009;BME280;59542;37.950;-122.338;2022-09-03T12:35:15;101190.03;;;16.07;72.06
70009;BME280;59542;37.950;-122.338;2022-09-03T12:37:43;101186.88;;;16.10;71.57
70009;BME280;59542;37.950;-122.338;2022-09-03T12:40:19;101176.16;;;15.92;72.39
70009;BME280;59542;37.950;-122.338;2022-09-03T12:42:46;101181.19;;;15.77;73.39
70009;BME280;59542;37.950;-122.338;2022-09-03T12:45:14;101187.41;;;15.77;73.16
70009;BME280;59542;37.950;-122.338;2022-09-03T12:47:43;101176.16;;;15.92;73.24
70009;BME280;59542;37.950;-122.338;2022-09-03T12:50:12;101176.53;;;15.96;73.26
70009;BME280;59542;37.950;-122.338;2022-09-03T12:52:48;101181.91;;;15.84;73.84
70009;BME280;59542;37.950;-122.338;2022-09-03T13:01:02;101184.38;;;15.97;73.72
70009;BME280;59542;37.950;-122.338;2022-09-03T13:06:42;101194.22;;;15.92;73.61
70009;BME280;59542;37.950;-122.338;2022-09-03T13:09:13;101204.22;;;15.91;73.51
70009;BME280;59542;37.950;-122.338;2022-09-03T13:11:40;101199.88;;;16.02;72.93
70009;BME280;59542;37.950;-122.338;2022-09-03T13:14:11;101188.69;;;15.87;73.19
70009;BME280;59542;37.950;-122.338;2022-09-03T13:22:35;101207.41;;;16.00;72.30
70009;BME280;59542;37.950;-122.338;2022-09-03T13:30:47;101216.91;;;16.02;71.84
70009;BME280;59542;37.950;-122.338;2022-09-03T13:33:21;101217.00;;;15.96;72.14
70009;BME280;59542;37.950;-122.338;2022-09-03T13:36:08;101215.50;;;15.88;72.50
70009;BME280;59542;37.950;-122.338;2022-09-03T13:41:29;101217.28;;;15.64;73.27
70009;BME280;59542;37.950;-122.338;2022-09-03T13:44:07;101208.91;;;15.84;72.44
70009;BME280;59542;37.950;-122.338;2022-09-03T13:50:18;101210.56;;;15.97;72.76
70009;BME280;59542;37.950;-122.338;2022-09-03T13:56:05;101194.44;;;15.78;73.44
70009;BME280;59542;37.950;-122.338;2022-09-03T13:58:45;101201.63;;;15.96;73.30
70009;BME280;59542;37.950;-122.338;2022-09-03T14:01:35;101201.84;;;15.83;74.32
70009;BME280;59542;37.950;-122.338;2022-09-03T14:04:20;101200.81;;;16.07;73.00
70009;BME280;59542;37.950;-122.338;2022-09-03T14:07:12;101209.84;;;16.01;73.12
70009;BME280;59542;37.950;-122.338;2022-09-03T14:10:03;101219.44;;;15.86;74.06
70009;BME280;59542;37.950;-122.338;2022-09-03T14:17:54;101223.09;;;15.79;74.52
70009;BME280;59542;37.950;-122.338;2022-09-03T14:20:28;101224.63;;;15.87;74.61
70009;BME280;59542;37.950;-122.338;2022-09-03T14:23:17;101236.28;;;15.99;74.34
70009;BME280;59542;37.950;-122.338;2022-09-03T14:25:59;101228.75;;;16.01;73.63
70009;BME280;59542;37.950;-122.338;2022-09-03T14:28:36;101236.97;;;15.95;74.30
70009;BME280;59542;37.950;-122.338;2022-09-03T14:31:25;101235.56;;;16.04;74.08
70009;BME280;59542;37.950;-122.338;2022-09-03T14:39:33;101255.09;;;16.18;74.33
70009;BME280;59542;37.950;-122.338;2022-09-03T14:42:11;101252.94;;;16.08;74.73
70009;BME280;59542;37.950;-122.338;2022-09-03T14:59:16;101250.06;;;16.80;75.09
70009;BME280;59542;37.950;-122.338;2022-09-03T15:02:06;101251.00;;;16.85;74.66
70009;BME280;59542;37.950;-122.338;2022-09-03T15:07:45;101246.38;;;16.98;74.30
70009;BME280;59542;37.950;-122.338;2022-09-03T15:10:34;101240.22;;;17.14;74.27
70009;BME280;59542;37.950;-122.338;2022-09-03T15:13:32;101247.72;;;17.24;73.34
70009;BME280;59542;37.950;-122.338;2022-09-03T15:26:55;101253.34;;;17.62;72.63
70009;BME280;59542;37.950;-122.338;2022-09-03T15:40:59;101255.66;;;18.16;71.12
70009;BME280;59542;37.950;-122.338;2022-09-03T15:43:32;101263.78;;;18.50;70.69
70009;BME280;59542;37.950;-122.338;2022-09-03T15:54:57;101273.47;;;19.01;68.07
70009;BME280;59542;37.950;-122.338;2022-09-03T15:57:51;101281.16;;;19.31;67.72
70009;BME280;59542;37.950;-122.338;2022-09-03T16:00:30;101275.84;;;19.41;67.50
70009;BME280;59542;37.950;-122.338;2022-09-03T16:03:20;101271.91;;;19.54;66.42
70009;BME280;59542;37.950;-122.338;2022-09-03T16:05:56;101277.59;;;19.52;65.34
70009;BME280;59542;37.950;-122.338;2022-09-03T16:08:39;101272.81;;;19.87;65.38
70009;BME280;59542;37.950;-122.338;2022-09-03T16:14:02;101277.50;;;20.23;63.76
70009;BME280;59542;37.950;-122.338;2022-09-03T16:19:26;101274.16;;;20.48;62.97
70009;BME280;59542;37.950;-122.338;2022-09-03T16:22:00;101270.25;;;20.76;61.82